sensor_id;sensor_type;location;lat;lon;timestamp;P1;durP1;ratioP1;P2;durP2;ratioP2
27939;SDS011;15275;51.716;14.324;2023-07-30T00:02:20;8.00;;;3.00;;
27939;SDS011;15275;51.716;14.324;2023-07-30T00:04:46;3.80;;;3.10;;
27939;SDS011;15275;51.716;14.324;2023-07-30T00:07:12;8.50;;;3.20;;
27939;SDS011;15275;51.716;14.324;2023-07-30T00:09:38;12.27;;;3.10;;
27939;SDS011;15275;51.716;14.324;2023-07-30T00:12:05;3.25;;;2.90;;
27939;SDS011;15275;51.716;14.324;2023-07-30T00:14:32;5.05;;;3.20;;
27939;SDS011;15275;51.716;14.324;2023-07-30T00:16:58;5.07;;;2.83;;
27939;SDS011;15275;51.716;14.324;2023-07-30T00:19:24;4.47;;;3.20;;
27939;SDS011;15275;51.716;14.324;2023-07-30T00:21:50;5.63;;;3.35;;
27939;SDS011;15275;51.716;14.324;2023-07-30T00:24:16;4.75;;;3.72;;
27939;SDS011;15275;51.716;14.324;2023-07-30T00:26:41;5.03;;;3.17;;
27939;SDS011;15275;51.716;14.324;2023-07-30T00:29:07;9.13;;;3.92;;
27939;SDS011;15275;51.716;14.324;2023-07-30T00:31:33;3.92;;;3.17;;
27939;SDS011;15275;51.716;14.324;2023-07-30T00:33:59;6.72;;;3.42;;
27939;SDS011;15275;51.716;14.324;2023-07-30T00:36:25;4.30;;;2.90;;
27939;SDS011;15275;51.716;14.324;2023-07-30T00:38:50;4.25;;;3.33;;
27939;SDS011;15275;51.716;14.324;2023-07-30T00:41:16;6.95;;;3.92;;
27939;SDS011;15275;51.716;14.324;2023-07-30T00:43:42;3.85;;;3.25;;
27939;SDS011;15275;51.716;14.324;2023-07-30T00:46:08;7.22;;;3.40;;
27939;SDS011;15275;51.716;14.324;2023-07-30T00:48:34;3.92;;;3.20;;
27939;SDS011;15275;51.716;14.324;2023-07-30T00:51:00;4.28;;;3.85;;
27939;SDS011;15275;51.716;14.324;2023-07-30T00:53:26;3.60;;;3.22;;
27939;SDS011;15275;51.716;14.324;2023-07-30T00:55:52;5.32;;;3.88;;
27939;SDS011;15275;51.716;14.324;2023-07-30T00:58:20;10.45;;;3.53;;
27939;SDS011;15275;51.716;14.324;2023-07-30T01:00:46;5.13;;;3.63;;
27939;SDS011;15275;51.716;14.324;2023-07-30T01:03:12;5.53;;;3.70;;
27939;SDS011;15275;51.716;14.324;2023-07-30T01:05:39;13.15;;;3.80;;
27939;SDS011;15275;51.716;14.324;2023-07-30T01:08:05;5.38;;;3.63;;
27939;SDS011;15275;51.716;14.324;2023-07-30T01:10:31;5.55;;;3.60;;
27939;SDS011;15275;51.716;14.324;2023-07-30T01:13:00;6.30;;;3.85;;
27939;SDS011;15275;51.716;14.324;2023-07-30T01:15:28;4.72;;;3.38;;
27939;SDS011;15275;51.716;14.324;2023-07-30T01:17:55;9.25;;;3.78;;
27939;SDS011;15275;51.716;14.324;2023-07-30T01:20:21;8.23;;;3.75;;
27939;SDS011;15275;51.716;14.324;2023-07-30T01:22:47;5.88;;;3.63;;
27939;SDS011;15275;51.716;14.324;2023-07-30T01:25:13;7.53;;;3.78;;
27939;SDS011;15275;51.716;14.324;2023-07-30T01:27:41;5.80;;;3.97;;
27939;SDS011;15275;51.716;14.324;2023-07-30T01:30:17;10.70;;;4.00;;
27939;SDS011;15275;51.716;14.324;2023-07-30T01:32:48;5.35;;;3.55;;
27939;SDS011;15275;51.716;14.324;2023-07-30T01:35:16;7.47;;;3.63;;
27939;SDS011;15275;51.716;14.324;2023-07-30T01:37:45;8.38;;;4.30;;
27939;SDS011;15275;51.716;14.324;2023-07-30T01:40:12;4.38;;;3.97;;
27939;SDS011;15275;51.716;14.324;2023-07-30T01:42:39;5.15;;;3.50;;
27939;SDS011;15275;51.716;14.324;2023-07-30T01:45:05;6.63;;;3.22;;
27939;SDS011;15275;51.716;14.324;2023-07-30T01:47:31;7.72;;;3.80;;
27939;SDS011;15275;51.716;14.324;2023-07-30T01:49:57;7.65;;;3.67;;
27939;SDS011;15275;51.716;14.324;2023-07-30T01:52:23;8.88;;;3.55;;
27939;SDS011;15275;51.716;14.324;2023-07-30T01:54:49;5.15;;;3.63;;
27939;SDS011;15275;51.716;14.324;2023-07-30T01:57:14;6.22;;;3.92;;
27939;SDS011;15275;51.716;14.324;2023-07-30T01:59:40;6.90;;;3.25;;
27939;SDS011;15275;51.716;14.324;2023-07-30T02:02:06;5.80;;;3.97;;
27939;SDS011;15275;51.716;14.324;2023-07-30T02:04:33;8.07;;;3.50;;
27939;SDS011;15275;51.716;14.324;2023-07-30T02:06:59;4.03;;;3.55;;
27939;SDS011;15275;51.716;14.324;2023-07-30T02:09:25;3.50;;;3.17;;
27939;SDS011;15275;51.716;14.324;2023-07-30T02:11:50;4.38;;;3.88;;
27939;SDS011;15275;51.716;14.324;2023-07-30T02:14:17;6.55;;;3.90;;
27939;SDS011;15275;51.716;14.324;2023-07-30T02:16:43;5.20;;;3.92;;
27939;SDS011;15275;51.716;14.324;2023-07-30T02:19:09;4.60;;;3.85;;
27939;SDS011;15275;51.716;14.324;2023-07-30T02:21:35;8.13;;;3.67;;
27939;SDS011;15275;51.716;14.324;2023-07-30T02:24:04;5.53;;;3.78;;
27939;SDS011;15275;51.716;14.324;2023-07-30T02:26:34;8.65;;;3.72;;
27939;SDS011;15275;51.716;14.324;2023-07-30T02:29:01;4.70;;;3.58;;
27939;SDS011;15275;51.716;14.324;2023-07-30T02:31:27;7.25;;;3.75;;
27939;SDS011;15275;51.716;14.324;2023-07-30T02:33:52;3.72;;;3.35;;
27939;SDS011;15275;51.716;14.324;2023-07-30T02:36:18;3.70;;;3.33;;
27939;SDS011;15275;51.716;14.324;2023-07-30T02:38:44;4.45;;;3.00;;
27939;SDS011;15275;51.716;14.324;2023-07-30T02:41:10;5.95;;;3.25;;
27939;SDS011;15275;51.716;14.324;2023-07-30T02:43:35;3.50;;;3.10;;
27939;SDS011;15275;51.716;14.324;2023-07-30T02:46:01;8.68;;;4.22;;
27939;SDS011;15275;51.716;14.324;2023-07-30T02:48:27;6.93;;;3.13;;
27939;SDS011;15275;51.716;14.324;2023-07-30T02:50:53;7.82;;;2.83;;
27939;SDS011;15275;51.716;14.324;2023-07-30T02:53:18;6.30;;;3.80;;
27939;SDS011;15275;51.716;14.324;2023-07-30T02:55:44;4.00;;;3.35;;
27939;SDS011;15275;51.716;14.324;2023-07-30T02:58:10;5.18;;;2.92;;
27939;SDS011;15275;51.716;14.324;2023-07-30T03:00:36;9.38;;;3.13;;
27939;SDS011;15275;51.716;14.324;2023-07-30T03:03:02;4.32;;;3.03;;
27939;SDS011;15275;51.716;14.324;2023-07-30T03:05:29;7.40;;;3.78;;
27939;SDS011;15275;51.716;14.324;2023-07-30T03:07:55;5.10;;;3.00;;
27939;SDS011;15275;51.716;14.324;2023-07-30T03:10:21;7.55;;;3.67;;
27939;SDS011;15275;51.716;14.324;2023-07-30T03:12:47;4.40;;;2.97;;
27939;SDS011;15275;51.716;14.324;2023-07-30T03:15:13;3.58;;;3.00;;
27939;SDS011;15275;51.716;14.324;2023-07-30T03:17:38;3.20;;;2.83;;
27939;SDS011;15275;51.716;14.324;2023-07-30T03:20:04;4.07;;;3.10;;
27939;SDS011;15275;51.716;14.324;2023-07-30T03:22:31;8.20;;;3.20;;
27939;SDS011;15275;51.716;14.324;2023-07-30T03:24:57;4.35;;;2.60;;
27939;SDS011;15275;51.716;14.324;2023-07-30T03:27:23;6.28;;;2.80;;
27939;SDS011;15275;51.716;14.324;2023-07-30T03:29:49;7.28;;;3.20;;
27939;SDS011;15275;51.716;14.324;2023-07-30T03:32:14;6.32;;;3.05;;
27939;SDS011;15275;51.716;14.324;2023-07-30T03:34:40;5.55;;;2.70;;
27939;SDS011;15275;51.716;14.324;2023-07-30T03:37:06;4.47;;;2.92;;
27939;SDS011;15275;51.716;14.324;2023-07-30T03:39:32;6.25;;;2.80;;
27939;SDS011;15275;51.716;14.324;2023-07-30T03:41:58;8.85;;;2.80;;
27939;SDS011;15275;51.716;14.324;2023-07-30T03:44:23;6.53;;;2.78;;
27939;SDS011;15275;51.716;14.324;2023-07-30T03:46:49;5.97;;;2.97;;
27939;SDS011;15275;51.716;14.324;2023-07-30T03:49:15;5.97;;;2.85;;
27939;SDS011;15275;51.716;14.324;2023-07-30T03:51:40;4.57;;;3.50;;
27939;SDS011;15275;51.716;14.324;2023-07-30T03:54:06;5.03;;;2.75;;
27939;SDS011;15275;51.716;14.324;2023-07-30T03:56:32;10.15;;;3.47;;
27939;SDS011;15275;51.716;14.324;2023-07-30T03:58:58;7.70;;;3.20;;
27939;SDS011;15275;51.716;14.324;2023-07-30T04:01:24;3.70;;;2.83;;
27939;SDS011;15275;51.716;14.324;2023-07-30T04:03:49;6.35;;;3.00;;
27939;SDS011;15275;51.716;14.324;2023-07-30T04:06:15;5.13;;;3.35;;
27939;SDS011;15275;51.716;14.324;2023-07-30T04:08:41;14.52;;;3.05;;
27939;SDS011;15275;51.716;14.324;2023-07-30T04:11:07;8.63;;;3.20;;
27939;SDS011;15275;51.716;14.324;2023-07-30T04:13:33;7.25;;;3.28;;
27939;SDS011;15275;51.716;14.324;2023-07-30T04:15:59;4.07;;;3.08;;
27939;SDS011;15275;51.716;14.324;2023-07-30T04:18:25;7.00;;;3.38;;
27939;SDS011;15275;51.716;14.324;2023-07-30T04:20:53;9.93;;;3.38;;
27939;SDS011;15275;51.716;14.324;2023-07-30T04:23:21;4.65;;;2.95;;
27939;SDS011;15275;51.716;14.324;2023-07-30T04:25:48;3.35;;;2.65;;
27939;SDS011;15275;51.716;14.324;2023-07-30T04:28:15;6.35;;;3.30;;
27939;SDS011;15275;51.716;14.324;2023-07-30T04:30:41;4.78;;;3.28;;
27939;SDS011;15275;51.716;14.324;2023-07-30T04:33:07;5.68;;;2.90;;
27939;SDS011;15275;51.716;14.324;2023-07-30T04:35:33;9.32;;;2.85;;
27939;SDS011;15275;51.716;14.324;2023-07-30T04:37:59;5.55;;;3.13;;
27939;SDS011;15275;51.716;14.324;2023-07-30T04:40:24;7.90;;;2.83;;
27939;SDS011;15275;51.716;14.324;2023-07-30T04:42:50;5.35;;;3.20;;
27939;SDS011;15275;51.716;14.324;2023-07-30T04:45:16;5.38;;;3.25;;
27939;SDS011;15275;51.716;14.324;2023-07-30T04:47:42;6.00;;;3.00;;
27939;SDS011;15275;51.716;14.324;2023-07-30T04:50:08;8.93;;;2.88;;
27939;SDS011;15275;51.716;14.324;2023-07-30T04:52:34;9.05;;;3.00;;
27939;SDS011;15275;51.716;14.324;2023-07-30T04:54:59;6.60;;;3.00;;
27939;SDS011;15275;51.716;14.324;2023-07-30T04:57:25;5.10;;;3.50;;
27939;SDS011;15275;51.716;14.324;2023-07-30T04:59:51;4.47;;;3.33;;
27939;SDS011;15275;51.716;14.324;2023-07-30T05:02:17;9.10;;;3.40;;
27939;SDS011;15275;51.716;14.324;2023-07-30T05:04:43;4.82;;;3.03;;
27939;SDS011;15275;51.716;14.324;2023-07-30T05:07:09;6.13;;;3.15;;
27939;SDS011;15275;51.716;14.324;2023-07-30T05:09:35;3.15;;;2.80;;
27939;SDS011;15275;51.716;14.324;2023-07-30T05:12:01;5.95;;;3.15;;
27939;SDS011;15275;51.716;14.324;2023-07-30T05:14:27;7.22;;;3.28;;
27939;SDS011;15275;51.716;14.324;2023-07-30T05:16:53;7.55;;;3.58;;
27939;SDS011;15275;51.716;14.324;2023-07-30T05:19:19;4.65;;;3.20;;
27939;SDS011;15275;51.716;14.324;2023-07-30T05:21:45;7.20;;;2.90;;
27939;SDS011;15275;51.716;14.324;2023-07-30T05:24:11;4.28;;;2.70;;
27939;SDS011;15275;51.716;14.324;2023-07-30T05:26:36;11.70;;;3.28;;
27939;SDS011;15275;51.716;14.324;2023-07-30T05:29:02;5.45;;;2.45;;
27939;SDS011;15275;51.716;14.324;2023-07-30T05:31:28;4.95;;;2.72;;
27939;SDS011;15275;51.716;14.324;2023-07-30T05:33:54;4.10;;;2.80;;
27939;SDS011;15275;51.716;14.324;2023-07-30T05:36:20;4.95;;;3.40;;
27939;SDS011;15275;51.716;14.324;2023-07-30T05:38:46;3.80;;;2.67;;
27939;SDS011;15275;51.716;14.324;2023-07-30T05:41:12;7.93;;;2.70;;
27939;SDS011;15275;51.716;14.324;2023-07-30T05:43:37;7.10;;;2.97;;
27939;SDS011;15275;51.716;14.324;2023-07-30T05:46:03;3.50;;;3.08;;
27939;SDS011;15275;51.716;14.324;2023-07-30T05:48:29;5.03;;;3.08;;
27939;SDS011;15275;51.716;14.324;2023-07-30T05:50:55;5.63;;;2.67;;
27939;SDS011;15275;51.716;14.324;2023-07-30T05:53:21;7.88;;;2.85;;
27939;SDS011;15275;51.716;14.324;2023-07-30T05:55:46;3.88;;;3.00;;
27939;SDS011;15275;51.716;14.324;2023-07-30T05:58:12;6.97;;;2.40;;
27939;SDS011;15275;51.716;14.324;2023-07-30T06:00:39;4.55;;;2.80;;
27939;SDS011;15275;51.716;14.324;2023-07-30T06:03:04;3.40;;;3.08;;
27939;SDS011;15275;51.716;14.324;2023-07-30T06:05:31;4.07;;;2.97;;
27939;SDS011;15275;51.716;14.324;2023-07-30T06:07:57;4.15;;;2.72;;
27939;SDS011;15275;51.716;14.324;2023-07-30T06:10:24;3.53;;;2.63;;
27939;SDS011;15275;51.716;14.324;2023-07-30T06:12:50;5.15;;;2.90;;
27939;SDS011;15275;51.716;14.324;2023-07-30T06:15:16;3.53;;;2.50;;
27939;SDS011;15275;51.716;14.324;2023-07-30T06:17:41;4.90;;;2.72;;
27939;SDS011;15275;51.716;14.324;2023-07-30T06:20:07;4.38;;;2.78;;
27939;SDS011;15275;51.716;14.324;2023-07-30T06:22:34;5.07;;;3.17;;
27939;SDS011;15275;51.716;14.324;2023-07-30T06:25:00;12.40;;;3.10;;
27939;SDS011;15275;51.716;14.324;2023-07-30T06:27:25;3.17;;;2.85;;
27939;SDS011;15275;51.716;14.324;2023-07-30T06:29:51;4.88;;;2.65;;
27939;SDS011;15275;51.716;14.324;2023-07-30T06:32:17;5.28;;;3.17;;
27939;SDS011;15275;51.716;14.324;2023-07-30T06:34:43;3.78;;;2.80;;
27939;SDS011;15275;51.716;14.324;2023-07-30T06:37:09;3.78;;;3.05;;
27939;SDS011;15275;51.716;14.324;2023-07-30T06:39:34;3.30;;;2.70;;
27939;SDS011;15275;51.716;14.324;2023-07-30T06:42:00;5.85;;;2.63;;
27939;SDS011;15275;51.716;14.324;2023-07-30T06:44:26;5.75;;;2.55;;
27939;SDS011;15275;51.716;14.324;2023-07-30T06:46:52;5.95;;;3.35;;
27939;SDS011;15275;51.716;14.324;2023-07-30T06:49:17;5.40;;;2.80;;
27939;SDS011;15275;51.716;14.324;2023-07-30T06:51:43;7.03;;;2.97;;
27939;SDS011;15275;51.716;14.324;2023-07-30T06:54:09;4.95;;;3.58;;
27939;SDS011;15275;51.716;14.324;2023-07-30T06:56:35;4.00;;;2.88;;
27939;SDS011;15275;51.716;14.324;2023-07-30T06:59:01;3.78;;;3.20;;
27939;SDS011;15275;51.716;14.324;2023-07-30T07:01:28;6.07;;;3.05;;
27939;SDS011;15275;51.716;14.324;2023-07-30T07:03:54;5.57;;;3.15;;
27939;SDS011;15275;51.716;14.324;2023-07-30T07:06:20;3.45;;;2.60;;
27939;SDS011;15275;51.716;14.324;2023-07-30T07:08:46;3.80;;;2.67;;
27939;SDS011;15275;51.716;14.324;2023-07-30T07:11:12;6.80;;;3.05;;
27939;SDS011;15275;51.716;14.324;2023-07-30T07:13:37;5.88;;;3.10;;
27939;SDS011;15275;51.716;14.324;2023-07-30T07:16:03;5.68;;;3.17;;
27939;SDS011;15275;51.716;14.324;2023-07-30T07:18:29;5.18;;;3.05;;
27939;SDS011;15275;51.716;14.324;2023-07-30T07:20:55;3.50;;;2.83;;
27939;SDS011;15275;51.716;14.324;2023-07-30T07:23:20;5.78;;;2.80;;
27939;SDS011;15275;51.716;14.324;2023-07-30T07:25:46;2.95;;;2.60;;
27939;SDS011;15275;51.716;14.324;2023-07-30T07:28:12;3.30;;;2.92;;
27939;SDS011;15275;51.716;14.324;2023-07-30T07:30:38;4.82;;;3.03;;
27939;SDS011;15275;51.716;14.324;2023-07-30T07:33:04;3.25;;;2.50;;
27939;SDS011;15275;51.716;14.324;2023-07-30T07:35:37;3.80;;;3.00;;
27939;SDS011;15275;51.716;14.324;2023-07-30T07:38:04;7.88;;;3.00;;
27939;SDS011;15275;51.716;14.324;2023-07-30T07:40:30;3.60;;;3.30;;
27939;SDS011;15275;51.716;14.324;2023-07-30T07:43:01;3.33;;;3.00;;
27939;SDS011;15275;51.716;14.324;2023-07-30T07:45:27;3.50;;;3.15;;
27939;SDS011;15275;51.716;14.324;2023-07-30T07:47:52;4.68;;;3.08;;
27939;SDS011;15275;51.716;14.324;2023-07-30T07:50:18;2.67;;;2.42;;
27939;SDS011;15275;51.716;14.324;2023-07-30T07:52:44;6.85;;;3.00;;
27939;SDS011;15275;51.716;14.324;2023-07-30T07:55:10;10.35;;;3.20;;
27939;SDS011;15275;51.716;14.324;2023-07-30T07:57:35;3.08;;;2.78;;
27939;SDS011;15275;51.716;14.324;2023-07-30T08:00:01;4.20;;;3.00;;
27939;SDS011;15275;51.716;14.324;2023-07-30T08:02:30;8.80;;;3.08;;
27939;SDS011;15275;51.716;14.324;2023-07-30T08:04:56;4.13;;;3.05;;
27939;SDS011;15275;51.716;14.324;2023-07-30T08:07:21;5.95;;;3.15;;
27939;SDS011;15275;51.716;14.324;2023-07-30T08:09:48;5.30;;;2.97;;
27939;SDS011;15275;51.716;14.324;2023-07-30T08:12:14;3.92;;;2.78;;
27939;SDS011;15275;51.716;14.324;2023-07-30T08:14:39;5.07;;;2.65;;
27939;SDS011;15275;51.716;14.324;2023-07-30T08:17:05;3.33;;;2.90;;
27939;SDS011;15275;51.716;14.324;2023-07-30T08:19:31;4.43;;;3.03;;
27939;SDS011;15275;51.716;14.324;2023-07-30T08:21:57;11.35;;;3.10;;
27939;SDS011;15275;51.716;14.324;2023-07-30T08:24:24;3.92;;;2.85;;
27939;SDS011;15275;51.716;14.324;2023-07-30T08:26:49;2.55;;;2.35;;
27939;SDS011;15275;51.716;14.324;2023-07-30T08:29:15;5.05;;;3.20;;
27939;SDS011;15275;51.716;14.324;2023-07-30T08:31:41;4.30;;;2.80;;
27939;SDS011;15275;51.716;14.324;2023-07-30T08:34:07;6.60;;;2.97;;
27939;SDS011;15275;51.716;14.324;2023-07-30T08:36:32;2.58;;;2.38;;
27939;SDS011;15275;51.716;14.324;2023-07-30T08:38:58;5.60;;;2.78;;
27939;SDS011;15275;51.716;14.324;2023-07-30T08:41:25;4.93;;;2.72;;
27939;SDS011;15275;51.716;14.324;2023-07-30T08:43:51;4.55;;;2.75;;
27939;SDS011;15275;51.716;14.324;2023-07-30T08:46:18;3.08;;;2.50;;
27939;SDS011;15275;51.716;14.324;2023-07-30T08:48:43;2.90;;;2.70;;
27939;SDS011;15275;51.716;14.324;2023-07-30T08:51:10;4.00;;;3.03;;
27939;SDS011;15275;51.716;14.324;2023-07-30T08:53:37;3.15;;;2.72;;
27939;SDS011;15275;51.716;14.324;2023-07-30T08:56:04;3.83;;;2.63;;
27939;SDS011;15275;51.716;14.324;2023-07-30T08:58:31;4.15;;;2.80;;
27939;SDS011;15275;51.716;14.324;2023-07-30T09:00:59;4.47;;;2.63;;
27939;SDS011;15275;51.716;14.324;2023-07-30T09:03:34;4.82;;;2.75;;
27939;SDS011;15275;51.716;14.324;2023-07-30T09:06:04;3.80;;;2.75;;
27939;SDS011;15275;51.716;14.324;2023-07-30T09:08:30;6.65;;;2.95;;
27939;SDS011;15275;51.716;14.324;2023-07-30T09:10:57;3.83;;;2.80;;
27939;SDS011;15275;51.716;14.324;2023-07-30T09:13:39;3.05;;;2.80;;
27939;SDS011;15275;51.716;14.324;2023-07-30T09:16:09;3.05;;;2.70;;
27939;SDS011;15275;51.716;14.324;2023-07-30T09:21:12;6.07;;;2.65;;
27939;SDS011;15275;51.716;14.324;2023-07-30T09:23:42;3.72;;;3.13;;
27939;SDS011;15275;51.716;14.324;2023-07-30T09:26:09;3.58;;;2.45;;
27939;SDS011;15275;51.716;14.324;2023-07-30T09:28:35;3.38;;;2.45;;
27939;SDS011;15275;51.716;14.324;2023-07-30T09:31:03;3.75;;;2.15;;
27939;SDS011;15275;51.716;14.324;2023-07-30T09:33:32;2.72;;;2.50;;
27939;SDS011;15275;51.716;14.324;2023-07-30T09:36:02;5.18;;;3.00;;
27939;SDS011;15275;51.716;14.324;2023-07-30T09:38:29;2.60;;;2.40;;
27939;SDS011;15275;51.716;14.324;2023-07-30T09:41:01;5.07;;;2.17;;
27939;SDS011;15275;51.716;14.324;2023-07-30T09:43:36;2.20;;;2.00;;
27939;SDS011;15275;51.716;14.324;2023-07-30T09:46:03;5.68;;;2.30;;
27939;SDS011;15275;51.716;14.324;2023-07-30T09:48:31;2.67;;;2.10;;
27939;SDS011;15275;51.716;14.324;2023-07-30T09:50:59;3.20;;;2.28;;
27939;SDS011;15275;51.716;14.324;2023-07-30T09:53:31;2.95;;;2.30;;
27939;SDS011;15275;51.716;14.324;2023-07-30T09:56:00;2.50;;;2.30;;
27939;SDS011;15275;51.716;14.324;2023-07-30T09:58:32;2.60;;;2.00;;
27939;SDS011;15275;51.716;14.324;2023-07-30T10:00:58;2.15;;;1.92;;
27939;SDS011;15275;51.716;14.324;2023-07-30T10:03:25;3.22;;;2.42;;
27939;SDS011;15275;51.716;14.324;2023-07-30T10:05:53;2.30;;;2.05;;
27939;SDS011;15275;51.716;14.324;2023-07-30T10:08:27;2.92;;;2.35;;
27939;SDS011;15275;51.716;14.324;2023-07-30T10:10:58;4.20;;;1.92;;
27939;SDS011;15275;51.716;14.324;2023-07-30T10:13:25;5.82;;;2.22;;
27939;SDS011;15275;51.716;14.324;2023-07-30T10:15:52;5.03;;;1.73;;
27939;SDS011;15275;51.716;14.324;2023-07-30T10:18:18;2.15;;;1.95;;
27939;SDS011;15275;51.716;14.324;2023-07-30T10:20:53;2.75;;;2.33;;
27939;SDS011;15275;51.716;14.324;2023-07-30T10:23:21;3.78;;;2.15;;
27939;SDS011;15275;51.716;14.324;2023-07-30T10:25:53;2.30;;;2.00;;
27939;SDS011;15275;51.716;14.324;2023-07-30T10:28:54;2.33;;;2.13;;
27939;SDS011;15275;51.716;14.324;2023-07-30T10:31:13;2.10;;;1.90;;
27939;SDS011;15275;51.716;14.324;2023-07-30T10:33:51;2.25;;;1.73;;
27939;SDS011;15275;51.716;14.324;2023-07-30T10:37:04;1.83;;;1.70;;
27939;SDS011;15275;51.716;14.324;2023-07-30T10:39:15;3.15;;;1.75;;
27939;SDS011;15275;51.716;14.324;2023-07-30T10:41:44;8.77;;;1.90;;
27939;SDS011;15275;51.716;14.324;2023-07-30T10:44:52;2.40;;;1.85;;
27939;SDS011;15275;51.716;14.324;2023-07-30T10:47:11;2.53;;;2.20;;
27939;SDS011;15275;51.716;14.324;2023-07-30T10:49:37;1.60;;;1.50;;
27939;SDS011;15275;51.716;14.324;2023-07-30T10:52:11;4.03;;;1.77;;
27939;SDS011;15275;51.716;14.324;2023-07-30T10:54:37;2.60;;;1.80;;
27939;SDS011;15275;51.716;14.324;2023-07-30T10:57:03;1.52;;;1.30;;
27939;SDS011;15275;51.716;14.324;2023-07-30T10:59:35;3.33;;;1.63;;
27939;SDS011;15275;51.716;14.324;2023-07-30T11:02:02;2.20;;;2.00;;
27939;SDS011;15275;51.716;14.324;2023-07-30T11:04:29;2.72;;;1.90;;
27939;SDS011;15275;51.716;14.324;2023-07-30T11:06:59;2.85;;;1.92;;
27939;SDS011;15275;51.716;14.324;2023-07-30T11:09:26;2.38;;;1.70;;
27939;SDS011;15275;51.716;14.324;2023-07-30T11:11:53;2.45;;;1.92;;
27939;SDS011;15275;51.716;14.324;2023-07-30T11:14:21;2.42;;;2.10;;
27939;SDS011;15275;51.716;14.324;2023-07-30T11:16:53;2.47;;;1.80;;
27939;SDS011;15275;51.716;14.324;2023-07-30T11:19:24;5.35;;;2.30;;
27939;SDS011;15275;51.716;14.324;2023-07-30T11:21:52;1.98;;;1.65;;
27939;SDS011;15275;51.716;14.324;2023-07-30T11:24:20;7.25;;;1.70;;
27939;SDS011;15275;51.716;14.324;2023-07-30T11:26:59;4.53;;;2.00;;
27939;SDS011;15275;51.716;14.324;2023-07-30T11:29:26;4.25;;;1.70;;
27939;SDS011;15275;51.716;14.324;2023-07-30T11:31:52;2.08;;;1.88;;
27939;SDS011;15275;51.716;14.324;2023-07-30T11:34:22;5.22;;;1.63;;
27939;SDS011;15275;51.716;14.324;2023-07-30T11:36:48;2.42;;;2.10;;
27939;SDS011;15275;51.716;14.324;2023-07-30T11:39:15;2.22;;;2.00;;
27939;SDS011;15275;51.716;14.324;2023-07-30T11:41:41;2.25;;;2.03;;
27939;SDS011;15275;51.716;14.324;2023-07-30T11:44:07;2.08;;;1.92;;
27939;SDS011;15275;51.716;14.324;2023-07-30T11:46:33;4.97;;;1.85;;
27939;SDS011;15275;51.716;14.324;2023-07-30T11:49:11;2.20;;;2.00;;
27939;SDS011;15275;51.716;14.324;2023-07-30T11:51:39;2.47;;;2.28;;
27939;SDS011;15275;51.716;14.324;2023-07-30T11:54:06;3.50;;;2.25;;
27939;SDS011;15275;51.716;14.324;2023-07-30T11:56:33;2.25;;;2.05;;
27939;SDS011;15275;51.716;14.324;2023-07-30T11:59:04;2.78;;;2.30;;
27939;SDS011;15275;51.716;14.324;2023-07-30T12:01:32;2.30;;;1.80;;
27939;SDS011;15275;51.716;14.324;2023-07-30T12:04:00;2.33;;;2.00;;
27939;SDS011;15275;51.716;14.324;2023-07-30T12:06:45;2.58;;;1.83;;
27939;SDS011;15275;51.716;14.324;2023-07-30T12:09:20;2.22;;;2.03;;
27939;SDS011;15275;51.716;14.324;2023-07-30T12:12:00;2.30;;;2.10;;
27939;SDS011;15275;51.716;14.324;2023-07-30T12:17:01;2.55;;;2.35;;
27939;SDS011;15275;51.716;14.324;2023-07-30T12:19:28;2.60;;;2.20;;
27939;SDS011;15275;51.716;14.324;2023-07-30T12:21:54;2.78;;;2.58;;
27939;SDS011;15275;51.716;14.324;2023-07-30T12:24:19;2.45;;;2.25;;
27939;SDS011;15275;51.716;14.324;2023-07-30T12:26:47;2.80;;;2.53;;
27939;SDS011;15275;51.716;14.324;2023-07-30T12:29:12;2.67;;;2.25;;
27939;SDS011;15275;51.716;14.324;2023-07-30T12:31:38;2.40;;;2.20;;
27939;SDS011;15275;51.716;14.324;2023-07-30T12:34:04;3.72;;;2.50;;
27939;SDS011;15275;51.716;14.324;2023-07-30T12:36:30;4.30;;;2.42;;
27939;SDS011;15275;51.716;14.324;2023-07-30T12:38:56;3.38;;;2.47;;
27939;SDS011;15275;51.716;14.324;2023-07-30T12:41:21;2.70;;;2.50;;
27939;SDS011;15275;51.716;14.324;2023-07-30T12:43:54;4.15;;;2.20;;
27939;SDS011;15275;51.716;14.324;2023-07-30T12:46:22;2.90;;;2.30;;
27939;SDS011;15275;51.716;14.324;2023-07-30T12:48:48;2.50;;;2.10;;
27939;SDS011;15275;51.716;14.324;2023-07-30T12:51:14;2.22;;;1.85;;
27939;SDS011;15275;51.716;14.324;2023-07-30T12:53:40;2.38;;;2.00;;
27939;SDS011;15275;51.716;14.324;2023-07-30T12:56:05;2.20;;;1.95;;
27939;SDS011;15275;51.716;14.324;2023-07-30T12:58:31;2.40;;;2.20;;
27939;SDS011;15275;51.716;14.324;2023-07-30T13:00:57;2.85;;;2.55;;
27939;SDS011;15275;51.716;14.324;2023-07-30T13:03:23;3.70;;;2.92;;
27939;SDS011;15275;51.716;14.324;2023-07-30T13:05:49;2.97;;;2.63;;
27939;SDS011;15275;51.716;14.324;2023-07-30T13:08:15;2.28;;;2.08;;
27939;SDS011;15275;51.716;14.324;2023-07-30T13:10:41;4.53;;;2.20;;
27939;SDS011;15275;51.716;14.324;2023-07-30T13:13:06;1.83;;;1.70;;
27939;SDS011;15275;51.716;14.324;2023-07-30T13:15:32;1.80;;;1.70;;
27939;SDS011;15275;51.716;14.324;2023-07-30T13:17:58;2.22;;;1.90;;
27939;SDS011;15275;51.716;14.324;2023-07-30T13:20:24;3.92;;;2.08;;
27939;SDS011;15275;51.716;14.324;2023-07-30T13:22:50;3.63;;;2.40;;
27939;SDS011;15275;51.716;14.324;2023-07-30T13:25:17;2.50;;;2.30;;
27939;SDS011;15275;51.716;14.324;2023-07-30T13:27:43;2.95;;;1.60;;
27939;SDS011;15275;51.716;14.324;2023-07-30T13:30:08;3.80;;;2.28;;
27939;SDS011;15275;51.716;14.324;2023-07-30T13:32:34;2.17;;;1.98;;
27939;SDS011;15275;51.716;14.324;2023-07-30T13:35:00;2.42;;;2.08;;
27939;SDS011;15275;51.716;14.324;2023-07-30T13:37:26;1.98;;;1.88;;
27939;SDS011;15275;51.716;14.324;2023-07-30T13:39:52;2.45;;;2.20;;
27939;SDS011;15275;51.716;14.324;2023-07-30T13:42:17;2.33;;;2.13;;
27939;SDS011;15275;51.716;14.324;2023-07-30T13:44:43;2.58;;;2.20;;
27939;SDS011;15275;51.716;14.324;2023-07-30T13:47:09;3.47;;;1.58;;
27939;SDS011;15275;51.716;14.324;2023-07-30T13:49:35;2.15;;;1.80;;
27939;SDS011;15275;51.716;14.324;2023-07-30T13:52:01;3.42;;;2.00;;
27939;SDS011;15275;51.716;14.324;2023-07-30T13:54:26;2.05;;;1.80;;
27939;SDS011;15275;51.716;14.324;2023-07-30T13:56:52;2.55;;;1.88;;
27939;SDS011;15275;51.716;14.324;2023-07-30T13:59:18;2.60;;;2.03;;
27939;SDS011;15275;51.716;14.324;2023-07-30T14:01:44;2.25;;;1.85;;
27939;SDS011;15275;51.716;14.324;2023-07-30T14:04:09;3.13;;;1.70;;
27939;SDS011;15275;51.716;14.324;2023-07-30T14:06:35;4.93;;;4.43;;
27939;SDS011;15275;51.716;14.324;2023-07-30T14:09:01;2.47;;;2.10;;
27939;SDS011;15275;51.716;14.324;2023-07-30T14:11:29;2.33;;;1.80;;
27939;SDS011;15275;51.716;14.324;2023-07-30T14:13:54;2.13;;;1.83;;
27939;SDS011;15275;51.716;14.324;2023-07-30T14:16:21;3.00;;;2.67;;
27939;SDS011;15275;51.716;14.324;2023-07-30T14:18:47;2.70;;;2.03;;
27939;SDS011;15275;51.716;14.324;2023-07-30T14:21:13;2.17;;;1.80;;
27939;SDS011;15275;51.716;14.324;2023-07-30T14:23:38;6.30;;;2.58;;
27939;SDS011;15275;51.716;14.324;2023-07-30T14:26:04;3.10;;;1.80;;
27939;SDS011;15275;51.716;14.324;2023-07-30T14:28:30;2.10;;;1.85;;
27939;SDS011;15275;51.716;14.324;2023-07-30T14:30:56;3.75;;;2.10;;
27939;SDS011;15275;51.716;14.324;2023-07-30T14:33:21;2.10;;;1.90;;
27939;SDS011;15275;51.716;14.324;2023-07-30T14:35:47;4.30;;;2.25;;
27939;SDS011;15275;51.716;14.324;2023-07-30T14:38:13;7.80;;;5.95;;